createdAt,value
2022-10-05T00:03:02.542Z,12.15
2022-10-05T00:09:51.409Z,12.60
2022-10-05T00:16:38.569Z,9.82
2022-10-05T00:23:32.527Z,11.25
2022-10-05T00:30:22.200Z,9.93
2022-10-05T00:37:08.137Z,10.48
2022-10-05T00:44:18.201Z,10.83
2022-10-05T00:51:27.118Z,12.48
2022-10-05T00:58:23.917Z,10.00
2022-10-05T01:05:18.910Z,12.18
2022-10-05T01:12:12.453Z,10.02
2022-10-05T01:19:09.665Z,10.02
2022-10-05T01:26:16.769Z,10.27
2022-10-05T01:33:13.461Z,10.95
2022-10-05T01:40:09.766Z,10.77
2022-10-05T01:47:04.485Z,12.83
2022-10-05T01:54:09.536Z,9.93
2022-10-05T02:01:06.601Z,11.00
2022-10-05T02:07:59.467Z,10.40
2022-10-05T02:14:52.753Z,10.57
2022-10-05T02:21:40.374Z,10.60
2022-10-05T02:28:32.355Z,11.60
2022-10-05T02:43:26.894Z,12.05
2022-10-05T03:04:17.320Z,11.75
2022-10-05T03:11:12.734Z,14.00
2022-10-05T03:18:10.832Z,11.50
2022-10-05T03:25:35.222Z,12.65
2022-10-05T03:32:33.263Z,12.05
2022-10-05T03:39:29.132Z,11.73
2022-10-05T03:46:28.243Z,13.18
2022-10-05T03:53:21.581Z,13.80
2022-10-05T04:00:15.493Z,14.20
2022-10-05T04:07:18.223Z,14.13
2022-10-05T04:14:10.229Z,24.23
2022-10-05T04:21:01.801Z,13.52
2022-10-05T04:27:55.604Z,13.15
2022-10-05T04:34:56.005Z,11.45
2022-10-05T04:42:06.342Z,13.45
2022-10-05T04:49:36.766Z,13.05
2022-10-05T04:56:32.798Z,12.55
2022-10-05T05:04:00.239Z,12.13
2022-10-05T05:11:19.991Z,13.30
2022-10-05T05:18:36.452Z,12.70
2022-10-05T05:25:37.391Z,12.52
2022-10-05T05:32:42.640Z,13.07
2022-10-05T05:39:32.411Z,19.20
2022-10-05T05:46:51.300Z,31.02
2022-10-05T05:53:42.575Z,15.40
2022-10-05T06:00:34.465Z,20.70
2022-10-05T06:07:30.763Z,16.15
2022-10-05T06:14:27.860Z,14.13
2022-10-05T06:21:23.654Z,15.55
2022-10-05T06:28:13.821Z,15.40
2022-10-05T06:35:25.421Z,14.40
2022-10-05T06:42:35.272Z,13.73
2022-10-05T06:49:46.664Z,13.02
2022-10-05T06:57:02.317Z,15.98
2022-10-05T07:04:12.462Z,21.95
2022-10-05T07:11:07.855Z,19.70
2022-10-05T07:18:13.394Z,24.27
2022-10-05T07:25:08.927Z,20.05
2022-10-05T07:32:09.179Z,19.35
2022-10-05T07:39:07.942Z,21.70
2022-10-05T07:46:01.676Z,23.15
2022-10-05T07:52:53.389Z,20.80
2022-10-05T07:59:51.234Z,20.42
2022-10-05T08:06:51.954Z,18.67
2022-10-05T08:13:47.693Z,17.83
2022-10-05T08:20:47.684Z,18.23
2022-10-05T08:27:44.900Z,18.02
2022-10-05T08:34:37.361Z,19.23
2022-10-05T08:42:20.359Z,25.10
2022-10-05T08:50:02.045Z,21.88
2022-10-05T08:57:00.930Z,18.98
2022-10-05T09:04:22.451Z,22.27
2022-10-05T09:11:14.614Z,18.60
2022-10-05T09:19:03.118Z,17.38
2022-10-05T09:26:11.555Z,15.45
2022-10-05T09:33:33.642Z,15.05
2022-10-05T09:41:01.033Z,15.48
2022-10-05T09:48:45.496Z,11.20
2022-10-05T09:56:12.777Z,10.18
2022-10-05T10:04:07.086Z,9.55
2022-10-05T10:11:21.698Z,9.50
2022-10-05T10:18:37.673Z,10.35
2022-10-05T10:25:50.210Z,9.63
2022-10-05T10:33:20.114Z,16.42
2022-10-05T10:40:42.427Z,11.05
2022-10-05T10:47:47.160Z,7.97
2022-10-05T10:55:02.360Z,7.90
2022-10-05T11:02:28.644Z,7.10
2022-10-05T11:09:42.741Z,6.60
2022-10-05T11:17:16.720Z,6.63
2022-10-05T11:24:45.164Z,8.02
2022-10-05T11:32:20.580Z,6.95
2022-10-05T11:39:37.006Z,7.10
2022-10-05T11:46:33.062Z,7.15
2022-10-05T11:53:26.888Z,7.18
2022-10-05T12:00:22.462Z,7.32
2022-10-05T12:07:21.698Z,6.73
2022-10-05T12:14:17.865Z,10.48
2022-10-05T12:28:00.239Z,7.13
2022-10-05T12:35:01.715Z,7.40
2022-10-05T12:41:59.171Z,7.80
2022-10-05T12:49:07.979Z,7.63
2022-10-05T12:56:02.885Z,7.90
2022-10-05T13:02:52.782Z,7.20
2022-10-05T13:09:45.570Z,6.85
2022-10-05T13:16:39.962Z,7.38
2022-10-05T13:23:39.763Z,8.13
2022-10-05T13:30:25.544Z,6.55
2022-10-05T13:44:22.828Z,9.25
2022-10-05T13:51:17.836Z,5.97
2022-10-05T13:58:10.253Z,6.67
2022-10-05T14:05:04.909Z,6.10
2022-10-05T14:12:14.903Z,6.90
2022-10-05T14:19:18.607Z,7.43
2022-10-05T14:26:12.028Z,6.47
2022-10-05T14:33:00.584Z,6.18
2022-10-05T14:39:45.932Z,5.40
2022-10-05T14:46:38.675Z,6.70
2022-10-05T14:53:26.196Z,6.20
2022-10-05T15:00:16.486Z,5.57
2022-10-05T15:07:21.070Z,7.10
2022-10-05T15:14:17.908Z,5.97
2022-10-05T15:21:36.935Z,5.80
2022-10-05T15:28:40.674Z,8.32
2022-10-05T15:36:05.351Z,5.38
2022-10-05T15:42:52.735Z,5.85
2022-10-05T15:49:51.965Z,5.78
2022-10-05T15:56:42.113Z,6.30
2022-10-05T16:03:37.302Z,5.63
2022-10-05T16:10:27.258Z,5.70
2022-10-05T16:17:27.834Z,5.50
2022-10-05T16:24:40.009Z,6.85
2022-10-05T16:31:37.621Z,5.30
2022-10-05T16:38:38.726Z,8.50
2022-10-05T16:45:45.027Z,6.97
2022-10-05T16:52:35.781Z,6.60
2022-10-05T17:00:03.330Z,7.15
2022-10-05T17:07:16.832Z,7.75
2022-10-05T17:14:24.509Z,9.68
2022-10-05T17:21:21.455Z,6.88
2022-10-05T17:28:26.380Z,6.38
2022-10-05T17:35:58.197Z,6.25
2022-10-05T17:42:52.309Z,6.43
2022-10-05T17:50:12.809Z,7.20
2022-10-05T17:57:24.363Z,9.35
2022-10-05T18:04:52.061Z,8.05
2022-10-05T18:11:43.471Z,9.85
2022-10-05T18:18:57.786Z,10.95
2022-10-05T18:25:51.050Z,7.25
2022-10-05T18:33:11.183Z,8.82
2022-10-05T18:40:24.566Z,6.97
2022-10-05T18:47:22.192Z,7.97
2022-10-05T18:54:24.953Z,6.57
2022-10-05T19:01:41.325Z,7.50
2022-10-05T19:08:36.097Z,6.18
2022-10-05T19:15:30.279Z,6.93
2022-10-05T19:22:31.278Z,6.43
2022-10-05T19:29:35.946Z,6.65
2022-10-05T19:36:46.785Z,8.85
2022-10-05T19:44:08.894Z,5.55
2022-10-05T19:50:58.435Z,5.90
2022-10-05T19:57:51.306Z,6.28
2022-10-05T20:04:43.161Z,5.70
2022-10-05T20:11:29.321Z,8.70
2022-10-05T20:25:41.538Z,6.78
2022-10-05T20:32:30.730Z,6.45
2022-10-05T20:39:16.912Z,6.30
2022-10-05T20:46:04.902Z,6.38
2022-10-05T20:52:50.568Z,5.97
2022-10-05T20:59:37.641Z,7.97
2022-10-05T21:06:26.337Z,5.90
2022-10-05T21:13:12.881Z,8.07
2022-10-05T21:19:58.419Z,6.90
2022-10-05T21:26:47.759Z,5.83
2022-10-05T21:33:33.140Z,5.20
2022-10-05T21:40:19.532Z,5.57
2022-10-05T21:53:57.854Z,5.88
2022-10-05T22:00:43.276Z,6.13
2022-10-05T22:07:35.119Z,5.38
2022-10-05T22:14:21.097Z,5.53
2022-10-05T22:21:07.915Z,6.22
2022-10-05T22:27:55.920Z,5.80
2022-10-05T22:34:41.313Z,5.97
2022-10-05T22:41:26.717Z,7.57
2022-10-05T22:48:15.897Z,5.87
2022-10-05T22:55:01.393Z,5.72
2022-10-05T23:01:46.856Z,5.43
2022-10-05T23:08:35.290Z,5.40
2022-10-05T23:15:21.020Z,5.88
2022-10-05T23:22:06.856Z,7.33
2022-10-05T23:28:55.084Z,6.65
2022-10-05T23:35:40.412Z,8.27
2022-10-05T23:42:26.430Z,6.07
2022-10-05T23:49:14.809Z,6.10
2022-10-05T23:56:00.254Z,5.72
